Time;durP1;ratioP1;P1;durP2;ratioP2;P2;SDS_P1;SDS_P2;PMS_P1;PMS_P2;Temp;Humidity;BMP_temperature;BMP_pressure;BME280_temperature;BME280_humidity;BME280_pressure;Samples;Min_cycle;Max_cycle;Signal;HPM_P1;HPM_P2
2023/09/08 00:02:07;;;;;;;4.97;2.80;;;19.00;99.90;;;;;;5035374;28;20473;-76
2023/09/08 00:04:33;;;;;;;4.72;2.38;;;18.90;99.90;;;;;;5053300;28;20021;-76
2023/09/08 00:06:59;;;;;;;10.65;3.08;;;18.90;99.90;;;;;;5053384;28;20017;-76
2023/09/08 00:09:24;;;;;;;5.65;3.03;;;18.90;99.90;;;;;;5035390;28;20384;-75
2023/09/08 00:11:50;;;;;;;5.55;2.90;;;19.20;99.90;;;;;;5053342;28;20017;-75
2023/09/08 00:14:15;;;;;;;6.97;2.40;;;18.90;99.90;;;;;;5035414;28;20025;-75
2023/09/08 00:16:42;;;;;;;5.47;2.35;;;18.90;99.90;;;;;;5052897;28;20022;-76
2023/09/08 00:19:09;;;;;;;4.97;2.60;;;18.90;99.90;;;;;;5053057;28;20100;-75
2023/09/08 00:21:36;;;;;;;5.10;3.17;;;18.80;99.90;;;;;;5053172;28;20032;-75
2023/09/08 00:24:01;;;;;;;4.88;2.70;;;18.80;99.90;;;;;;5052994;28;20033;-75
2023/09/08 00:26:27;;;;;;;4.53;2.72;;;18.80;99.90;;;;;;5035186;28;20029;-75
2023/09/08 00:28:52;;;;;;;3.05;2.08;;;18.70;99.90;;;;;;5053080;28;20017;-75
2023/09/08 00:31:18;;;;;;;4.30;2.40;;;18.80;99.90;;;;;;5037392;28;20120;-75
2023/09/08 00:33:44;;;;;;;4.15;2.72;;;18.80;99.90;;;;;;5056968;28;20029;-75
2023/09/08 00:36:10;;;;;;;3.90;2.70;;;18.80;99.90;;;;;;5056708;28;20025;-75
2023/09/08 00:38:35;;;;;;;8.27;2.88;;;18.80;99.90;;;;;;5056738;28;20025;-75
2023/09/08 00:41:01;;;;;;;6.72;2.88;;;18.80;99.90;;;;;;5038962;28;20437;-75
2023/09/08 00:43:27;;;;;;;6.85;3.03;;;18.80;99.90;;;;;;5056721;28;20483;-75
2023/09/08 00:45:54;;;;;;;6.90;3.67;;;18.90;99.90;;;;;;5056546;28;20024;-75
2023/09/08 00:48:20;;;;;;;5.78;2.65;;;18.90;99.90;;;;;;5056786;28;20025;-75
2023/09/08 00:50:46;;;;;;;4.78;3.08;;;18.80;99.90;;;;;;5056854;28;20491;-75
2023/09/08 00:53:12;;;;;;;5.50;3.00;;;18.80;99.90;;;;;;5056601;28;20065;-75
2023/09/08 00:55:40;;;;;;;4.63;3.08;;;18.80;99.90;;;;;;5038615;28;20021;-75
2023/09/08 00:58:06;;;;;;;3.90;2.83;;;18.80;99.90;;;;;;5056345;28;20047;-75
2023/09/08 01:00:32;;;;;;;3.75;2.85;;;18.80;99.90;;;;;;5056906;28;20154;-75
2023/09/08 01:02:58;;;;;;;5.35;3.33;;;18.80;99.90;;;;;;5056880;28;20100;-75
2023/09/08 01:05:24;;;;;;;3.63;2.63;;;18.80;99.90;;;;;;5056320;28;20044;-75
2023/09/08 01:07:52;;;;;;;5.75;2.90;;;18.80;99.90;;;;;;5056777;28;20380;-76
2023/09/08 01:10:17;;;;;;;7.03;3.15;;;18.80;99.90;;;;;;5056194;28;20033;-75
2023/09/08 01:12:43;;;;;;;4.20;3.03;;;18.80;99.90;;;;;;5056631;28;20029;-75
2023/09/08 01:15:09;;;;;;;3.60;2.88;;;18.80;99.90;;;;;;5056668;28;20586;-75
2023/09/08 01:17:34;;;;;;;7.97;2.63;;;18.80;99.90;;;;;;5056377;28;20482;-75
2023/09/08 01:20:27;;;;;;;11.45;2.75;;;18.80;99.90;;;;;;5056697;28;20021;-75
2023/09/08 01:23:18;;;;;;;9.65;3.40;;;20.20;99.90;;;;;;5056746;28;20096;-75
2023/09/08 01:25:54;;;;;;;6.22;3.28;;;18.80;99.90;;;;;;5055984;28;20388;-75
2023/09/08 01:28:21;;;;;;;5.90;2.88;;;18.80;99.90;;;;;;5056123;28;20028;-75
2023/09/08 01:30:48;;;;;;;4.93;2.90;;;18.80;99.90;;;;;;5056365;28;20055;-75
2023/09/08 01:33:14;;;;;;;11.07;3.30;;;18.80;99.90;;;;;;5037870;28;20032;-75
2023/09/08 01:35:39;;;;;;;11.98;3.42;;;18.80;99.90;;;;;;5055706;28;20047;-75
2023/09/08 01:38:05;;;;;;;6.78;3.40;;;18.70;99.90;;;;;;5038020;28;20035;-76
2023/09/08 01:40:30;;;;;;;7.25;3.63;;;18.70;99.90;;;;;;5055983;28;20025;-76
2023/09/08 01:42:56;;;;;;;6.10;3.47;;;18.70;99.90;;;;;;5036672;28;20021;-76
2023/09/08 01:45:21;;;;;;;6.22;3.78;;;18.70;99.90;;;;;;5055599;28;20043;-76
2023/09/08 01:47:47;;;;;;;7.20;3.88;;;18.70;99.90;;;;;;5055793;28;20078;-76
2023/09/08 01:50:13;;;;;;;5.43;3.72;;;18.70;99.90;;;;;;5055603;28;20017;-76
2023/09/08 01:52:38;;;;;;;15.20;3.85;;;18.70;99.90;;;;;;5055117;28;20035;-76
2023/09/08 01:55:04;;;;;;;6.93;3.70;;;18.70;99.90;;;;;;5055378;28;20060;-76
2023/09/08 01:57:30;;;;;;;9.88;3.83;;;18.70;99.90;;;;;;5055351;28;20384;-76
2023/09/08 01:59:55;;;;;;;5.85;4.03;;;18.60;99.90;;;;;;5055097;28;20092;-75
2023/09/08 02:02:21;;;;;;;6.32;3.80;;;18.60;99.90;;;;;;5055367;28;20047;-76
2023/09/08 02:04:47;;;;;;;7.63;2.97;;;18.50;99.90;;;;;;5055190;28;20021;-76
2023/09/08 02:07:14;;;;;;;7.45;3.47;;;18.50;99.90;;;;;;5055193;28;20040;-76
2023/09/08 02:09:39;;;;;;;5.07;3.70;;;18.50;99.90;;;;;;5037414;28;20031;-76
2023/09/08 02:12:05;;;;;;;8.10;3.47;;;18.40;99.90;;;;;;5055166;28;20472;-76
2023/09/08 02:14:31;;;;;;;6.72;4.35;;;18.40;99.90;;;;;;5055092;28;20484;-76
2023/09/08 02:16:56;;;;;;;5.03;3.17;;;18.40;99.90;;;;;;5055603;28;20105;-75
2023/09/08 02:19:22;;;;;;;5.90;3.92;;;18.50;99.90;;;;;;5037129;28;20075;-76
2023/09/08 02:21:48;;;;;;;7.72;3.78;;;18.50;99.90;;;;;;5055068;28;20092;-76
2023/09/08 02:24:14;;;;;;;11.88;4.85;;;18.40;99.90;;;;;;5055071;28;20021;-76
2023/09/08 02:26:40;;;;;;;6.85;3.70;;;18.40;99.90;;;;;;5037190;28;20435;-76
2023/09/08 02:29:07;;;;;;;6.03;3.63;;;18.40;99.90;;;;;;5054788;28;20388;-76
2023/09/08 02:31:33;;;;;;;7.75;4.07;;;18.40;99.90;;;;;;5055249;28;20029;-76
2023/09/08 02:33:58;;;;;;;7.68;3.88;;;18.30;99.90;;;;;;5054460;28;20433;-76
2023/09/08 02:36:27;;;;;;;5.88;3.88;;;18.30;99.90;;;;;;5054359;28;20083;-75
2023/09/08 02:38:53;;;;;;;10.63;5.03;;;18.30;99.90;;;;;;5036858;28;20451;-76
2023/09/08 02:41:19;;;;;;;7.15;3.67;;;18.20;99.90;;;;;;5055136;28;20082;-76
2023/09/08 02:43:44;;;;;;;8.02;4.30;;;18.20;99.90;;;;;;5055292;28;20112;-76
2023/09/08 02:46:10;;;;;;;5.47;3.95;;;18.20;99.90;;;;;;5054691;28;20029;-76
2023/09/08 02:48:36;;;;;;;5.72;3.85;;;18.20;99.90;;;;;;5054965;28;20376;-76
2023/09/08 02:51:01;;;;;;;13.20;4.30;;;18.10;99.90;;;;;;5054881;28;20388;-76
2023/09/08 02:53:28;;;;;;;7.18;5.07;;;18.20;99.90;;;;;;5054556;28;20028;-76
2023/09/08 02:55:58;;;;;;;10.68;3.83;;;18.10;99.90;;;;;;5054503;28;20056;-76
2023/09/08 02:58:24;;;;;;;8.13;4.00;;;18.10;99.90;;;;;;5054376;28;20040;-76
2023/09/08 03:00:51;;;;;;;6.30;4.22;;;18.10;99.90;;;;;;5036521;28;20021;-76
2023/09/08 03:03:20;;;;;;;5.57;3.90;;;18.10;99.90;;;;;;5053995;28;20045;-75
2023/09/08 03:05:46;;;;;;;9.18;4.00;;;18.00;99.90;;;;;;5036301;28;20017;-76
2023/09/08 03:08:12;;;;;;;7.40;3.83;;;18.00;99.90;;;;;;5054307;28;20040;-76
2023/09/08 03:10:37;;;;;;;9.50;3.33;;;18.00;99.90;;;;;;5054558;28;20104;-76
2023/09/08 03:13:04;;;;;;;6.47;4.18;;;17.90;99.90;;;;;;5036516;28;20021;-75
2023/09/08 03:15:30;;;;;;;6.68;4.10;;;17.90;99.90;;;;;;5053801;28;20024;-76
2023/09/08 03:17:58;;;;;;;6.82;4.10;;;17.90;99.90;;;;;;5036040;28;20396;-76
2023/09/08 03:20:24;;;;;;;8.95;4.40;;;17.80;99.90;;;;;;5036084;28;20498;-75
2023/09/08 03:22:49;;;;;;;7.72;4.30;;;17.80;99.90;;;;;;5053821;28;20043;-76
2023/09/08 03:25:15;;;;;;;8.40;4.30;;;17.80;99.90;;;;;;5036436;28;20071;-75
2023/09/08 03:27:40;;;;;;;8.65;4.10;;;17.80;99.90;;;;;;5053714;28;20033;-76
2023/09/08 03:30:07;;;;;;;8.98;5.07;;;17.70;99.90;;;;;;5053966;28;20017;-76
2023/09/08 03:32:33;;;;;;;8.52;4.38;;;17.70;99.90;;;;;;5053957;28;20056;-75
2023/09/08 03:34:58;;;;;;;7.22;4.72;;;17.60;99.90;;;;;;5054095;28;20379;-76
2023/09/08 03:37:26;;;;;;;11.43;4.45;;;17.70;99.90;;;;;;5053456;28;20029;-76
2023/09/08 03:39:52;;;;;;;13.52;4.15;;;17.70;99.90;;;;;;5036213;28;20013;-76
2023/09/08 03:42:17;;;;;;;8.45;5.40;;;17.60;99.90;;;;;;5054361;28;20025;-75
2023/09/08 03:44:43;;;;;;;8.40;5.10;;;17.60;99.90;;;;;;5053664;28;20384;-76
2023/09/08 03:47:08;;;;;;;9.43;4.82;;;17.60;99.90;;;;;;5053844;28;20032;-75
2023/09/08 03:49:34;;;;;;;10.02;4.82;;;17.70;99.90;;;;;;5053591;28;20036;-76
2023/09/08 03:51:59;;;;;;;11.02;4.78;;;17.60;99.90;;;;;;5054332;28;20075;-76
2023/09/08 03:54:25;;;;;;;7.28;4.68;;;17.60;99.90;;;;;;5054343;28;20116;-75
2023/09/08 03:56:50;;;;;;;7.90;4.90;;;18.10;99.90;;;;;;5053617;28;20025;-76
2023/09/08 03:59:16;;;;;;;8.73;4.88;;;17.50;99.90;;;;;;5035722;28;20021;-75
2023/09/08 04:01:42;;;;;;;8.38;5.53;;;17.60;99.90;;;;;;5053654;28;20124;-76
2023/09/08 04:04:08;;;;;;;8.00;4.70;;;17.60;99.90;;;;;;5053694;28;20009;-75
2023/09/08 04:06:34;;;;;;;8.52;4.45;;;17.60;99.90;;;;;;5056174;28;20021;-76
2023/09/08 04:08:59;;;;;;;9.05;4.80;;;17.50;99.90;;;;;;5039821;28;20018;-76
2023/09/08 04:11:25;;;;;;;10.85;5.32;;;17.50;99.90;;;;;;5057723;28;20096;-76
2023/09/08 04:13:51;;;;;;;16.88;6.28;;;17.50;99.90;;;;;;5058259;28;20397;-75
2023/09/08 04:16:17;;;;;;;6.80;4.68;;;17.50;99.90;;;;;;5057278;28;20101;-76
2023/09/08 04:18:42;;;;;;;10.07;4.78;;;17.40;99.90;;;;;;5057851;28;20533;-75
2023/09/08 04:21:08;;;;;;;9.23;5.22;;;17.40;99.90;;;;;;5057802;28;20074;-76
2023/09/08 04:23:33;;;;;;;8.88;4.97;;;17.40;99.90;;;;;;5057447;28;20033;-76
2023/09/08 04:25:59;;;;;;;8.75;5.38;;;17.40;99.90;;;;;;5057141;28;20021;-76
2023/09/08 04:28:24;;;;;;;12.45;5.18;;;17.40;99.90;;;;;;5057042;28;20055;-76
2023/09/08 04:30:50;;;;;;;11.70;5.68;;;17.40;99.90;;;;;;5039278;28;20029;-76
2023/09/08 04:33:16;;;;;;;12.75;5.15;;;17.50;99.90;;;;;;5057114;28;20024;-76
2023/09/08 04:35:41;;;;;;;14.88;5.22;;;17.30;99.90;;;;;;5038718;28;20091;-76
2023/09/08 04:38:07;;;;;;;7.65;4.85;;;17.20;99.90;;;;;;5057437;28;20029;-76
2023/09/08 04:40:33;;;;;;;9.95;6.25;;;17.20;99.90;;;;;;5057097;28;20365;-76
2023/09/08 04:42:59;;;;;;;8.63;5.07;;;17.20;99.90;;;;;;5057120;28;20025;-76
2023/09/08 04:45:25;;;;;;;14.07;5.75;;;17.20;99.90;;;;;;5056773;28;20028;-76
2023/09/08 04:47:50;;;;;;;10.45;6.45;;;17.20;99.90;;;;;;5057327;28;20375;-76
2023/09/08 04:50:16;;;;;;;8.30;5.22;;;17.20;99.90;;;;;;5038898;28;20025;-76
2023/09/08 04:52:42;;;;;;;12.48;5.20;;;17.20;99.90;;;;;;5057159;28;20059;-76
2023/09/08 04:55:08;;;;;;;12.75;6.00;;;17.20;99.90;;;;;;5056952;28;20047;-76
2023/09/08 04:57:33;;;;;;;11.35;6.13;;;17.20;99.90;;;;;;5038869;28;20373;-75
2023/09/08 04:59:59;;;;;;;10.35;5.90;;;17.20;99.90;;;;;;5056642;28;20051;-76
2023/09/08 05:02:24;;;;;;;10.55;5.50;;;17.20;99.90;;;;;;5056456;28;20017;-75
2023/09/08 05:04:50;;;;;;;9.93;5.40;;;17.20;99.90;;;;;;5056810;28;20020;-75
2023/09/08 05:07:16;;;;;;;10.50;6.05;;;17.20;99.90;;;;;;5039069;28;20051;-76
2023/09/08 05:09:41;;;;;;;9.43;5.80;;;17.20;99.90;;;;;;5056545;28;20028;-75
2023/09/08 05:12:07;;;;;;;10.10;5.85;;;17.20;99.90;;;;;;5038392;28;20021;-76
2023/09/08 05:14:32;;;;;;;9.63;6.22;;;17.20;99.90;;;;;;5057006;28;20025;-76
2023/09/08 05:16:58;;;;;;;12.95;6.22;;;17.20;99.90;;;;;;5055778;28;20587;-76
2023/09/08 05:19:24;;;;;;;10.30;5.50;;;17.20;99.90;;;;;;5056549;28;20125;-76
2023/09/08 05:21:54;;;;;;;11.63;6.15;;;17.20;99.90;;;;;;5056068;28;20024;-76
2023/09/08 05:24:21;;;;;;;11.40;5.68;;;17.20;99.90;;;;;;5056614;28;20013;-76
2023/09/08 05:26:49;;;;;;;9.10;5.57;;;17.30;99.90;;;;;;5056087;28;20025;-76
2023/09/08 05:29:15;;;;;;;7.97;5.30;;;17.20;99.90;;;;;;5056058;28;20495;-76
2023/09/08 05:31:40;;;;;;;9.50;5.20;;;17.10;99.90;;;;;;5038345;28;20079;-76
2023/09/08 05:34:30;;;;;;;13.48;5.75;;;17.30;99.90;;;;;;5056248;28;20025;-76
2023/09/08 05:36:55;;;;;;;11.50;6.45;;;17.70;99.90;;;;;;5055725;28;20120;-76
2023/09/08 05:39:21;;;;;;;9.43;6.43;;;17.30;99.90;;;;;;5055885;28;20064;-76
2023/09/08 05:41:46;;;;;;;12.82;6.05;;;17.50;99.90;;;;;;5056082;28;20421;-76
2023/09/08 05:44:12;;;;;;;9.38;5.72;;;17.50;99.90;;;;;;5056227;28;20021;-76
2023/09/08 05:46:38;;;;;;;11.57;6.50;;;17.80;99.90;;;;;;5056043;28;20025;-76
2023/09/08 05:49:03;;;;;;;12.27;6.70;;;17.60;99.90;;;;;;5055844;28;20047;-76
2023/09/08 05:51:30;;;;;;;11.57;6.35;;;17.70;99.90;;;;;;5055742;28;20029;-76
2023/09/08 05:53:55;;;;;;;10.68;6.32;;;17.80;99.90;;;;;;5038236;28;20028;-76
2023/09/08 05:56:26;;;;;;;10.82;5.70;;;17.90;99.90;;;;;;5055424;28;20036;-76
2023/09/08 05:58:52;;;;;;;9.90;6.70;;;18.00;99.90;;;;;;5037581;28;20028;-76
2023/09/08 06:01:17;;;;;;;11.85;6.90;;;18.10;99.90;;;;;;5056164;28;20104;-75
2023/09/08 06:03:43;;;;;;;12.57;7.85;;;18.10;99.90;;;;;;5055350;28;20094;-76
2023/09/08 06:06:09;;;;;;;11.80;5.85;;;18.20;99.90;;;;;;5055868;28;20013;-76
2023/09/08 06:08:34;;;;;;;10.55;6.32;;;18.30;99.90;;;;;;5055350;28;20446;-76
2023/09/08 06:11:00;;;;;;;11.68;6.55;;;18.40;99.90;;;;;;5055890;28;20381;-76
2023/09/08 06:13:25;;;;;;;12.02;6.05;;;19.10;99.90;;;;;;5055354;28;20031;-76
2023/09/08 06:15:51;;;;;;;10.55;6.40;;;18.60;99.90;;;;;;5055178;28;20035;-76
2023/09/08 06:18:17;;;;;;;11.43;6.65;;;18.70;99.90;;;;;;5055007;28;20476;-75
2023/09/08 06:20:47;;;;;;;11.00;6.22;;;18.80;99.90;;;;;;5037732;28;20021;-76
2023/09/08 06:23:13;;;;;;;17.23;6.88;;;18.90;99.90;;;;;;5037590;28;20024;-74
2023/09/08 06:25:39;;;;;;;12.27;6.53;;;19.00;99.90;;;;;;5055372;28;20384;-74
2023/09/08 06:28:04;;;;;;;11.75;6.93;;;19.10;99.90;;;;;;5054420;28;20036;-74
2023/09/08 06:30:30;;;;;;;14.25;6.85;;;19.20;99.90;;;;;;5055527;28;20052;-74
2023/09/08 06:32:56;;;;;;;10.27;6.18;;;19.30;99.90;;;;;;5037110;28;20021;-74
2023/09/08 06:35:21;;;;;;;13.43;7.35;;;19.30;99.90;;;;;;5054654;28;20096;-75
2023/09/08 06:37:47;;;;;;;11.02;6.68;;;19.40;99.90;;;;;;5036671;28;20025;-74
2023/09/08 06:40:12;;;;;;;13.43;6.38;;;19.50;99.90;;;;;;5036930;28;20526;-74
2023/09/08 06:42:38;;;;;;;11.27;5.70;;;19.60;99.90;;;;;;5055008;28;20361;-74
2023/09/08 06:45:05;;;;;;;11.02;6.15;;;19.70;99.90;;;;;;5054986;28;20048;-74
2023/09/08 06:47:31;;;;;;;11.13;6.60;;;19.80;99.90;;;;;;5055146;28;20020;-74
2023/09/08 06:49:56;;;;;;;15.52;6.20;;;19.90;99.90;;;;;;5054822;28;20029;-71
2023/09/08 06:52:22;;;;;;;12.05;6.15;;;20.00;99.90;;;;;;5054383;28;20021;-72
2023/09/08 06:54:47;;;;;;;14.90;6.43;;;20.10;99.90;;;;;;5054723;28;20037;-72
2023/09/08 06:57:13;;;;;;;17.08;7.45;;;20.10;99.90;;;;;;5054072;28;20025;-73
2023/09/08 06:59:39;;;;;;;12.48;6.35;;;20.20;99.90;;;;;;5054578;28;20110;-73
2023/09/08 07:02:04;;;;;;;15.68;6.85;;;20.30;99.90;;;;;;5054043;28;20147;-73
2023/09/08 07:04:31;;;;;;;10.88;6.82;;;20.40;99.90;;;;;;5066050;28;20017;-73
2023/09/08 07:06:57;;;;;;;9.70;5.88;;;20.50;99.90;;;;;;5074068;28;20052;-71
2023/09/08 07:09:25;;;;;;;12.30;6.85;;;20.60;99.90;;;;;;5073921;28;20032;-71
2023/09/08 07:11:51;;;;;;;14.07;6.75;;;20.70;99.90;;;;;;5074456;28;20033;-74
2023/09/08 07:14:16;;;;;;;9.95;6.00;;;20.70;99.90;;;;;;5073818;28;20017;-73
2023/09/08 07:16:42;;;;;;;10.93;6.15;;;20.80;99.90;;;;;;5056111;28;20097;-74
2023/09/08 07:19:08;;;;;;;10.43;6.88;;;20.90;99.90;;;;;;5055702;28;20021;-75
2023/09/08 07:21:33;;;;;;;10.63;6.70;;;20.90;99.90;;;;;;5074063;28;20017;-74
2023/09/08 07:23:59;;;;;;;10.77;7.22;;;21.10;99.90;;;;;;5073571;28;20017;-74
2023/09/08 07:26:24;;;;;;;13.10;7.18;;;21.20;99.90;;;;;;5073513;28;20419;-74
2023/09/08 07:28:50;;;;;;;12.85;7.30;;;21.20;99.90;;;;;;5073535;28;20051;-75
2023/09/08 07:31:16;;;;;;;15.13;7.20;;;21.40;99.90;;;;;;5073755;28;20016;-74
2023/09/08 07:33:41;;;;;;;12.55;6.70;;;21.50;99.90;;;;;;5073686;28;20464;-74
2023/09/08 07:36:09;;;;;;;10.98;6.50;;;21.60;99.90;;;;;;5073600;28;20075;-74
2023/09/08 07:38:34;;;;;;;10.32;6.55;;;21.70;99.90;;;;;;5073873;28;20070;-74
2023/09/08 07:41:01;;;;;;;12.20;6.65;;;21.80;99.90;;;;;;5073636;28;20016;-76
2023/09/08 07:43:28;;;;;;;11.63;6.60;;;22.00;99.90;;;;;;5073953;28;20107;-76
2023/09/08 07:45:53;;;;;;;11.45;6.57;;;22.10;99.90;;;;;;5073971;28;20084;-74
2023/09/08 07:48:19;;;;;;;9.27;5.93;;;22.20;99.90;;;;;;5073341;28;20106;-74
2023/09/08 07:50:44;;;;;;;11.15;6.75;;;22.30;99.90;;;;;;5073468;28;20029;-74
2023/09/08 07:53:10;;;;;;;8.77;5.75;;;22.50;99.90;;;;;;5073354;28;20029;-74
2023/09/08 07:55:36;;;;;;;9.45;6.43;;;22.50;99.90;;;;;;5073514;28;20111;-74
2023/09/08 07:58:03;;;;;;;11.90;6.53;;;22.70;99.90;;;;;;5073287;28;20033;-74
2023/09/08 08:00:29;;;;;;;10.85;6.38;;;22.70;99.90;;;;;;5073836;28;20017;-74
2023/09/08 08:02:56;;;;;;;10.13;6.35;;;22.80;99.90;;;;;;5055478;28;20059;-74
2023/09/08 08:05:22;;;;;;;10.98;6.22;;;22.90;99.90;;;;;;5057972;28;20078;-74
2023/09/08 08:07:48;;;;;;;14.73;6.47;;;23.00;99.90;;;;;;5053100;28;20476;-73
2023/09/08 08:10:14;;;;;;;9.82;6.13;;;23.00;99.90;;;;;;5053413;28;20028;-74
2023/09/08 08:12:41;;;;;;;13.98;6.63;;;23.10;99.90;;;;;;5053305;28;20025;-74
2023/09/08 08:15:07;;;;;;;17.10;6.47;;;23.20;99.90;;;;;;5053026;28;20517;-74
2023/09/08 08:17:33;;;;;;;11.85;5.85;;;23.30;99.90;;;;;;5053976;28;20038;-74
2023/09/08 08:19:58;;;;;;;9.45;6.10;;;23.40;99.90;;;;;;5053486;28;20389;-74
2023/09/08 08:22:25;;;;;;;9.43;5.43;;;23.50;99.90;;;;;;5053408;28;20096;-74
2023/09/08 08:24:50;;;;;;;9.05;5.80;;;23.60;99.90;;;;;;5053107;28;20024;-74
2023/09/08 08:27:16;;;;;;;10.70;5.88;;;23.70;99.90;;;;;;5052975;28;20029;-74
2023/09/08 08:29:41;;;;;;;9.60;5.40;;;23.90;99.90;;;;;;5053299;28;20021;-74
2023/09/08 08:32:07;;;;;;;10.52;5.22;;;24.00;99.90;;;;;;5053184;28;20021;-73
2023/09/08 08:34:32;;;;;;;7.90;4.53;;;24.10;99.90;;;;;;5053220;28;20032;-74
2023/09/08 08:36:58;;;;;;;10.27;6.00;;;24.20;99.90;;;;;;5052551;28;20099;-74
2023/09/08 08:39:24;;;;;;;8.40;5.53;;;24.30;99.90;;;;;;5052851;28;20515;-74
2023/09/08 08:41:49;;;;;;;9.90;5.75;;;24.40;99.90;;;;;;5053210;28;20487;-74
2023/09/08 08:44:17;;;;;;;11.50;5.47;;;24.50;99.90;;;;;;5053218;28;20029;-74
2023/09/08 08:46:43;;;;;;;9.70;5.20;;;24.60;99.90;;;;;;5052647;28;20108;-74
2023/09/08 08:49:11;;;;;;;13.13;5.13;;;24.70;99.90;;;;;;5052923;28;20500;-74
2023/09/08 08:51:38;;;;;;;10.37;5.83;;;24.80;99.90;;;;;;5054024;28;20102;-74
2023/09/08 08:54:04;;;;;;;7.20;4.82;;;24.90;99.90;;;;;;5056854;28;20487;-74
2023/09/08 08:56:32;;;;;;;8.95;4.68;;;25.00;99.90;;;;;;5056472;28;20023;-74
2023/09/08 08:59:00;;;;;;;6.32;4.30;;;25.10;99.90;;;;;;5038370;28;20476;-74
2023/09/08 09:01:28;;;;;;;13.18;5.82;;;25.20;99.90;;;;;;5056728;28;20105;-74
2023/09/08 09:03:53;;;;;;;8.63;4.75;;;25.30;99.90;;;;;;5056303;28;20025;-73
2023/09/08 09:06:19;;;;;;;8.27;3.97;;;25.40;99.90;;;;;;5056155;28;20021;-74
2023/09/08 09:08:46;;;;;;;6.65;4.20;;;25.50;99.90;;;;;;5055996;28;20036;-74
2023/09/08 09:11:12;;;;;;;8.45;5.47;;;25.60;99.90;;;;;;5055983;28;20026;-74
2023/09/08 09:13:38;;;;;;;7.32;4.53;;;25.70;99.90;;;;;;5056262;28;20035;-74
2023/09/08 09:16:07;;;;;;;7.47;4.57;;;25.80;99.90;;;;;;5056508;28;20052;-74
2023/09/08 09:18:33;;;;;;;14.27;5.15;;;25.90;99.90;;;;;;5056052;28;20022;-74
2023/09/08 09:21:00;;;;;;;11.48;4.68;;;25.90;99.90;;;;;;5074299;28;20130;-74
2023/09/08 09:23:33;;;;;;;7.43;5.15;;;26.00;99.90;;;;;;5075827;28;20491;-74
2023/09/08 09:25:59;;;;;;;8.15;3.67;;;26.10;99.90;;;;;;5075923;28;20028;-74
2023/09/08 09:28:28;;;;;;;7.43;4.40;;;26.20;99.90;;;;;;5075989;28;20076;-74
2023/09/08 09:30:56;;;;;;;10.57;4.03;;;26.20;99.90;;;;;;5075665;28;20090;-74
2023/09/08 09:33:22;;;;;;;;;;;26.30;99.90;;;;;;5076156;28;20081;-73
2023/09/08 09:35:50;;;;;;;8.73;4.95;;;26.40;99.90;;;;;;5075907;28;20329;-74
2023/09/08 09:38:19;;;;;;;7.05;4.47;;;26.50;99.90;;;;;;5075651;28;20074;-74
2023/09/08 09:40:45;;;;;;;6.03;4.18;;;26.50;99.90;;;;;;5057955;28;20021;-74
2023/09/08 09:43:12;;;;;;;5.65;3.10;;;26.60;99.90;;;;;;5075616;28;20016;-74
2023/09/08 09:45:39;;;;;;;8.68;4.95;;;26.70;99.90;;;;;;5075710;28;20396;-74
2023/09/08 09:48:06;;;;;;;5.88;3.72;;;26.70;99.90;;;;;;5075589;28;20107;-74
2023/09/08 09:50:38;;;;;;;6.15;3.35;;;26.80;99.90;;;;;;5075565;28;20025;-74
2023/09/08 09:53:14;;;;;;;10.20;4.40;;;26.90;99.90;;;;;;5074991;28;20020;-73
2023/09/08 09:55:42;;;;;;;10.30;4.10;;;27.00;99.90;;;;;;5075514;28;20390;-74
2023/09/08 09:58:10;;;;;;;9.65;4.35;;;27.00;99.90;;;;;;5074992;28;20021;-74
2023/09/08 10:00:37;;;;;;;7.15;3.95;;;27.10;99.90;;;;;;5075372;28;20016;-74
2023/09/08 10:03:04;;;;;;;9.85;5.57;;;27.20;99.90;;;;;;5074196;28;20078;-74
2023/09/08 10:05:30;;;;;;;5.93;3.95;;;27.30;99.90;;;;;;5074890;28;20442;-74
2023/09/08 10:07:56;;;;;;;6.32;3.40;;;27.40;99.90;;;;;;5057393;28;20020;-74
2023/09/08 10:10:22;;;;;;;6.15;3.08;;;27.50;99.90;;;;;;5057039;28;20117;-74
2023/09/08 10:12:57;;;;;;;7.38;4.32;;;27.50;99.90;;;;;;5074845;28;20021;-73
2023/09/08 10:15:24;;;;;;;8.73;3.25;;;27.60;99.90;;;;;;5074980;28;20013;-74
2023/09/08 10:17:58;;;;;;;7.45;4.05;;;27.80;99.90;;;;;;5074728;28;20067;-74
2023/09/08 10:20:25;;;;;;;5.60;3.55;;;27.90;99.90;;;;;;5057014;28;20021;-74
2023/09/08 10:23:15;;;;;;;6.45;3.72;;;28.00;99.90;;;;;;5074962;28;20044;-74
2023/09/08 10:25:53;;;;;;;7.90;3.83;;;28.10;99.90;;;;;;5074875;28;20024;-74
2023/09/08 10:28:19;;;;;;;4.18;2.85;;;28.30;99.90;;;;;;5074832;28;20025;-74
2023/09/08 10:30:45;;;;;;;5.18;3.08;;;28.30;99.90;;;;;;5074972;28;20024;-74
2023/09/08 10:33:11;;;;;;;7.20;2.55;;;28.30;99.90;;;;;;5074806;28;20395;-74
2023/09/08 10:35:38;;;;;;;5.22;3.10;;;28.30;99.90;;;;;;5074463;28;20441;-74
2023/09/08 10:38:33;;;;;;;7.60;3.78;;;28.30;99.90;;;;;;5074722;28;20081;-74
2023/09/08 10:41:22;;;;;;;4.70;3.45;;;28.40;99.90;;;;;;5058086;28;20036;-74
2023/09/08 10:43:57;;;;;;;6.85;3.42;;;28.60;99.90;;;;;;5074656;28;20017;-74
2023/09/08 10:46:27;;;;;;;5.25;3.45;;;28.70;99.90;;;;;;5074336;28;20027;-74
2023/09/08 10:48:54;;;;;;;5.65;2.83;;;28.90;99.90;;;;;;5074346;28;20059;-74
2023/09/08 10:51:22;;;;;;;2.45;2.25;;;29.10;99.90;;;;;;5056661;28;20031;-74
2023/09/08 10:53:49;;;;;;;;;;;29.20;99.90;;;;;;5074441;28;20023;-74
2023/09/08 10:56:16;;;;;;;2.58;2.03;;;29.20;99.90;;;;;;5056243;28;19908;-74
2023/09/08 10:58:43;;;;;;;8.50;3.00;;;29.20;99.90;;;;;;5073851;28;20020;-74
2023/09/08 11:01:27;;;;;;;3.45;1.90;;;29.30;99.90;;;;;;5074019;28;20028;-74
2023/09/08 11:03:54;;;;;;;7.80;2.60;;;29.40;99.90;;;;;;5074710;28;20020;-74
2023/09/08 11:06:30;;;;;;;5.27;1.90;;;29.60;99.90;;;;;;5073917;28;20035;-74
2023/09/08 11:08:56;;;;;;;3.28;1.58;;;29.70;99.90;;;;;;5073987;28;20043;-74
2023/09/08 11:11:22;;;;;;;1.95;1.52;;;29.80;99.90;;;;;;5074183;28;20028;-74
2023/09/08 11:13:47;;;;;;;5.43;2.25;;;29.90;99.90;;;;;;5055906;28;20097;-74
2023/09/08 11:16:21;;;;;;;5.93;3.05;;;30.10;99.90;;;;;;5074077;28;20021;-74
2023/09/08 11:18:46;;;;;;;5.90;2.22;;;30.10;99.90;;;;;;5073942;28;20047;-74
2023/09/08 11:21:12;;;;;;;2.58;1.52;;;30.30;99.90;;;;;;5073304;28;20467;-74
2023/09/08 11:23:38;;;;;;;4.63;2.35;;;30.40;99.50;;;;;;5072188;28;20020;-74
2023/09/08 11:26:05;;;;;;;4.53;2.20;;;30.70;99.30;;;;;;5072275;28;20031;-74
2023/09/08 11:28:31;;;;;;;8.23;2.67;;;30.80;99.20;;;;;;5073424;28;20463;-75
2023/09/08 11:30:57;;;;;;;5.95;2.55;;;30.70;98.70;;;;;;5055281;28;20119;-74
2023/09/08 11:33:26;;;;;;;3.13;1.48;;;30.80;98.60;;;;;;5073635;28;20032;-74
2023/09/08 11:35:53;;;;;;;4.30;1.58;;;31.00;98.90;;;;;;5073382;28;20033;-74
2023/09/08 11:38:26;;;;;;;2.72;1.65;;;31.30;98.60;;;;;;5074019;28;20029;-72
2023/09/08 11:40:53;;;;;;;6.10;2.90;;;31.50;98.30;;;;;;5074071;28;20013;-72
2023/09/08 11:43:19;;;;;;;3.95;2.45;;;31.50;97.70;;;;;;5073403;28;20021;-71
2023/09/08 11:45:45;;;;;;;4.68;2.70;;;31.30;98.30;;;;;;5073402;28;20021;-72
2023/09/08 11:48:10;;;;;;;3.38;2.45;;;31.30;98.70;;;;;;5073843;28;20100;-72
2023/09/08 11:50:38;;;;;;;4.20;2.83;;;31.40;98.10;;;;;;5073803;28;20048;-72
2023/09/08 11:53:04;;;;;;;2.13;1.60;;;31.50;97.40;;;;;;5074073;28;20515;-72
2023/09/08 11:55:29;;;;;;;2.83;1.98;;;31.70;98.60;;;;;;5073426;28;20051;-72
2023/09/08 11:58:00;;;;;;;5.72;1.92;;;31.70;97.50;;;;;;5073718;28;20024;-71
2023/09/08 12:00:27;;;;;;;3.92;2.28;;;31.80;97.30;;;;;;5055655;28;20391;-72
2023/09/08 12:02:52;;;;;;;4.00;2.78;;;31.90;96.20;;;;;;5073443;28;20017;-72
2023/09/08 12:05:26;;;;;;;5.50;2.90;;;32.00;96.70;;;;;;5072977;28;20054;-72
2023/09/08 12:07:56;;;;;;;4.10;2.30;;;32.20;97.10;;;;;;5073406;28;20047;-72
2023/09/08 12:10:22;;;;;;;3.67;2.47;;;32.30;96.90;;;;;;5073344;28;20039;-72
2023/09/08 12:12:55;;;;;;;3.67;2.30;;;32.60;97.00;;;;;;5073420;28;20107;-75
2023/09/08 12:15:37;;;;;;;3.25;2.55;;;32.70;95.80;;;;;;5073098;28;20025;-75
2023/09/08 12:18:11;;;;;;;4.85;1.92;;;32.70;95.60;;;;;;5073258;28;20480;-75
2023/09/08 12:20:38;;;;;;;4.63;1.75;;;32.70;95.50;;;;;;5073214;28;20021;-76
2023/09/08 12:23:07;;;;;;;3.42;1.77;;;32.80;94.60;;;;;;5054826;28;20021;-76
2023/09/08 12:25:34;;;;;;;2.67;1.75;;;33.00;94.90;;;;;;5055200;28;20035;-76
2023/09/08 12:28:01;;;;;;;5.60;1.90;;;32.90;93.60;;;;;;5076681;28;20501;-76
2023/09/08 12:30:32;;;;;;;2.78;1.38;;;32.90;93.60;;;;;;5077066;28;20024;-75
2023/09/08 12:33:00;;;;;;;5.30;1.23;;;32.90;94.80;;;;;;5076538;28;20028;-76
2023/09/08 12:35:26;;;;;;;;;;;33.10;93.20;;;;;;5077143;28;20061;-76
2023/09/08 12:38:03;;;;;;;3.72;1.52;;;33.20;93.10;;;;;;5059236;28;19943;-76
2023/09/08 12:40:31;;;;;;;4.07;2.07;;;33.40;93.20;;;;;;5058994;28;20023;-76
2023/09/08 12:42:58;;;;;;;3.38;1.75;;;33.30;92.70;;;;;;5076666;28;20746;-76